Startpagina
METAR-TAF:

METAR-TAF

Vliegvelden :

Shawbury, Engeland

breedte: 52-48N, lengte: 002-40W, hoogte: 76 m

Actueel weer

Dit bericht is 30 minuten geleden gemaakt, om 19:50 UTC
Wind 8 kt uit het noorden
Temperatuur 11°C
Vochtigheid 82%
Druk 1011 hPa
Zicht 10 km of meer

METAR: EGOS 031950Z AUTO 35008KT 9999 SCT029/// BKN041/// 11/08 Q1011

Tijdstip: 21:20 (20:20 UTC)

Verwachting

Dit bericht is 6 uur en het 47 minuten geleden gemaakt, om 13:33 UTC
Verwachting geldig van 03 om 15 UTC tot 03 om 19 UTC
Wind 8 kt uit het noordnoordoosten
Zicht 10 km of meer
Weinig wolken op 1200 ft
Gebroken wolken op 3000 ft
lichte regen
Tijdelijke
van 03 om 15 UTC tot 03 om 19 UTC
Zicht: 6000 m
Verspreide wolken op 1200 ft
Gebroken wolken op 1600 ft
regen

TAF: EGOS 031333Z 0315/0319 02008KT 9999 -RA FEW012 BKN030 TEMPO 0315/0319 6000 RA SCT012 BKN016

Waarnemingen en weersverwachtingen van meer dan 4000 vliegvelden (METAR en TAF).

De beschikbare stations zijn de gele en rode punten op de kaart.

Ga met uw muis naar het station om de naam te zien.

Klik dan om waarnemingen en weersverwachtingen te zien.

kaart wijzigen: klik op de groene knoppen met een zwart kruis om in te zoomen, op de groene knop met een streepje om uit te zoomen of op de groene pijlen voor aangrenzende kaarten.


METAR-TAF: